Sainte-Marie, Canada
Current Conditions -  °F | °C
As of 8:00 AM on Friday 19 Dec 2014 (Local Time) from CYQB Reporting Station
Scattered Clouds Scattered Clouds  
Wind Chill: 18°   Ceiling: Unl
Heat Index: 18°   Visibility: 20mi
Dew Point: 14°   Wind: 2mph
Humidity: 86%   Direction: 280°W
Pressure: 29.95"   Gusts: NA
Location:  46.43°N, 71.02°W
Report Text: CYQB 191300Z 28002KT 20SM FEW020 SCT078 M08/M10 A2995 RMK SC1AC3 SC TR SLP148
Loading
Personal Weather Stations






























Interactive Weather Map New forecast layout! Learn more

10-Day Weather Forecast

Advertisements
Track Severe Weather on mobile